createdAt,value
2022-10-15T00:00:11.949Z,22.7
2022-10-15T00:15:02.938Z,22.7
2022-10-15T00:30:04.940Z,22.7
2022-10-15T00:45:04.713Z,22.6
2022-10-15T01:00:06.460Z,22.6
2022-10-15T01:15:04.369Z,22.6
2022-10-15T01:30:03.431Z,22.6
2022-10-15T01:45:02.637Z,22.5
2022-10-15T02:00:07.663Z,22.5
2022-10-15T02:15:02.468Z,22.5
2022-10-15T02:30:05.730Z,22.5
2022-10-15T02:45:03.060Z,22.5
2022-10-15T03:00:07.751Z,22.5
2022-10-15T03:15:04.022Z,22.5
2022-10-15T03:30:04.849Z,22.5
2022-10-15T03:45:03.414Z,22.5
2022-10-15T04:00:06.543Z,22.5
2022-10-15T04:15:04.173Z,22.4
2022-10-15T04:30:04.449Z,22.4
2022-10-15T04:45:02.661Z,22.4
2022-10-15T05:00:04.532Z,22.4
2022-10-15T05:15:04.738Z,22.4
2022-10-15T05:30:05.168Z,22.4
2022-10-15T05:45:02.774Z,22.4
2022-10-15T06:00:09.686Z,22.4
2022-10-15T06:15:03.953Z,22.4
2022-10-15T06:30:09.093Z,22.4
2022-10-15T06:45:02.631Z,22.4
2022-10-15T07:00:10.932Z,22.3
2022-10-15T07:15:02.583Z,22.3
2022-10-15T07:30:07.553Z,22.4
2022-10-15T07:45:04.071Z,22.4
2022-10-15T08:00:08.344Z,22.4
2022-10-15T08:15:02.432Z,22.4
2022-10-15T08:30:08.099Z,22.4
2022-10-15T08:45:05.509Z,22.4
2022-10-15T09:00:06.573Z,22.4
2022-10-15T09:15:04.325Z,22.4
2022-10-15T09:30:10.575Z,22.4
2022-10-15T09:45:04.963Z,22.4
2022-10-15T10:00:06.788Z,22.5
2022-10-15T10:15:02.187Z,22.5
2022-10-15T10:30:05.784Z,22.5
2022-10-15T10:45:03.810Z,22.6
2022-10-15T11:00:10.936Z,22.6
2022-10-15T11:15:03.198Z,22.7
2022-10-15T11:30:05.724Z,22.9
2022-10-15T11:45:04.757Z,23.0
2022-10-15T12:00:08.687Z,23.2
2022-10-15T12:15:02.470Z,23.2
2022-10-15T12:30:07.820Z,23.3
2022-10-15T12:45:03.028Z,23.4
2022-10-15T13:00:08.835Z,23.4
2022-10-15T13:15:05.565Z,23.4
2022-10-15T13:30:04.430Z,23.4
2022-10-15T13:45:03.538Z,23.4
2022-10-15T14:00:06.397Z,23.3
2022-10-15T14:15:04.628Z,23.3
2022-10-15T14:30:09.768Z,23.2
2022-10-15T14:45:02.714Z,23.2
2022-10-15T15:00:05.384Z,23.1
2022-10-15T15:15:02.094Z,23.1
2022-10-15T15:30:08.107Z,23.1
2022-10-15T15:45:04.647Z,23.0
2022-10-15T16:00:07.592Z,23
2022-10-15T16:15:04.276Z,22.9
2022-10-15T16:30:06.499Z,22.9
2022-10-15T16:45:02.563Z,22.8
2022-10-15T17:00:08.382Z,22.8
2022-10-15T17:15:03.840Z,22.7
2022-10-15T17:30:03.598Z,22.7
2022-10-15T17:45:04.694Z,22.7
2022-10-15T18:00:09.008Z,22.6
2022-10-15T18:15:03.761Z,22.6
2022-10-15T18:30:07.775Z,22.5
2022-10-15T18:45:03.587Z,22.5
2022-10-15T19:00:06.945Z,22.5
2022-10-15T19:15:02.761Z,22.4
2022-10-15T19:30:05.177Z,22.4
2022-10-15T19:45:04.052Z,22.3
2022-10-15T20:00:06.174Z,22.3
2022-10-15T20:15:02.470Z,22.3
2022-10-15T20:30:04.812Z,22.3
2022-10-15T20:45:04.493Z,22.2
2022-10-15T21:00:10.120Z,22.2
2022-10-15T21:15:04.725Z,22.1
2022-10-15T21:30:06.047Z,22.1
2022-10-15T21:45:02.341Z,22.1
2022-10-15T22:00:06.022Z,22.1
2022-10-15T22:15:02.927Z,22.0
2022-10-15T22:30:03.855Z,22.1
2022-10-15T22:45:04.552Z,22.1
2022-10-15T23:00:07.799Z,22.2
2022-10-15T23:15:03.708Z,22.2
2022-10-15T23:30:20.884Z,22.3
2022-10-15T23:45:03.207Z,22.3
